sensor_id;sensor_type;location;lat;lon;timestamp;P1;durP1;ratioP1;P2;durP2;ratioP2
36839;SDS011;24406;51.640;9.566;2024-01-27T00:00:53;17.25;;;3.47;;
36839;SDS011;24406;51.640;9.566;2024-01-27T00:05:54;16.77;;;2.90;;
36839;SDS011;24406;51.640;9.566;2024-01-27T00:10:58;19.50;;;3.30;;
36839;SDS011;24406;51.640;9.566;2024-01-27T00:15:59;12.90;;;3.42;;
36839;SDS011;24406;51.640;9.566;2024-01-27T00:21:01;25.02;;;3.85;;
36839;SDS011;24406;51.640;9.566;2024-01-27T00:26:04;18.13;;;3.35;;
36839;SDS011;24406;51.640;9.566;2024-01-27T00:31:06;19.38;;;3.95;;
36839;SDS011;24406;51.640;9.566;2024-01-27T00:36:07;15.52;;;3.45;;
36839;SDS011;24406;51.640;9.566;2024-01-27T00:41:15;17.75;;;3.42;;
36839;SDS011;24406;51.640;9.566;2024-01-27T00:46:17;17.35;;;3.53;;
36839;SDS011;24406;51.640;9.566;2024-01-27T00:51:18;18.75;;;3.90;;
36839;SDS011;24406;51.640;9.566;2024-01-27T00:56:22;15.90;;;3.83;;
36839;SDS011;24406;51.640;9.566;2024-01-27T01:01:23;17.75;;;4.95;;
36839;SDS011;24406;51.640;9.566;2024-01-27T01:06:25;19.85;;;5.65;;
36839;SDS011;24406;51.640;9.566;2024-01-27T01:11:28;21.10;;;3.95;;
36839;SDS011;24406;51.640;9.566;2024-01-27T01:16:30;26.65;;;4.75;;
36839;SDS011;24406;51.640;9.566;2024-01-27T01:21:31;15.70;;;4.22;;
36839;SDS011;24406;51.640;9.566;2024-01-27T01:26:34;21.73;;;3.80;;
36839;SDS011;24406;51.640;9.566;2024-01-27T01:31:36;25.00;;;5.28;;
36839;SDS011;24406;51.640;9.566;2024-01-27T01:36:37;14.07;;;3.72;;
36839;SDS011;24406;51.640;9.566;2024-01-27T01:41:41;19.23;;;4.60;;
36839;SDS011;24406;51.640;9.566;2024-01-27T01:46:42;21.73;;;4.32;;
36839;SDS011;24406;51.640;9.566;2024-01-27T01:51:44;21.48;;;4.85;;
36839;SDS011;24406;51.640;9.566;2024-01-27T01:56:47;23.15;;;4.88;;
36839;SDS011;24406;51.640;9.566;2024-01-27T02:01:49;21.55;;;4.70;;
36839;SDS011;24406;51.640;9.566;2024-01-27T02:06:50;16.25;;;5.38;;
36839;SDS011;24406;51.640;9.566;2024-01-27T02:11:53;21.38;;;4.85;;
36839;SDS011;24406;51.640;9.566;2024-01-27T02:16:55;20.65;;;5.65;;
36839;SDS011;24406;51.640;9.566;2024-01-27T02:21:56;24.50;;;5.30;;
36839;SDS011;24406;51.640;9.566;2024-01-27T02:26:59;22.60;;;6.20;;
36839;SDS011;24406;51.640;9.566;2024-01-27T02:32:01;22.50;;;7.10;;
36839;SDS011;24406;51.640;9.566;2024-01-27T02:37:02;22.52;;;6.65;;
36839;SDS011;24406;51.640;9.566;2024-01-27T02:42:06;24.23;;;6.40;;
36839;SDS011;24406;51.640;9.566;2024-01-27T02:47:09;29.42;;;7.72;;
36839;SDS011;24406;51.640;9.566;2024-01-27T02:52:11;18.02;;;6.88;;
36839;SDS011;24406;51.640;9.566;2024-01-27T02:57:15;17.65;;;5.95;;
36839;SDS011;24406;51.640;9.566;2024-01-27T03:02:17;21.20;;;6.57;;
36839;SDS011;24406;51.640;9.566;2024-01-27T03:07:19;19.55;;;6.82;;
36839;SDS011;24406;51.640;9.566;2024-01-27T03:12:22;27.45;;;8.73;;
36839;SDS011;24406;51.640;9.566;2024-01-27T03:17:24;27.75;;;8.35;;
36839;SDS011;24406;51.640;9.566;2024-01-27T03:22:25;22.13;;;7.63;;
36839;SDS011;24406;51.640;9.566;2024-01-27T03:27:28;25.48;;;8.35;;
36839;SDS011;24406;51.640;9.566;2024-01-27T03:32:30;21.58;;;9.68;;
36839;SDS011;24406;51.640;9.566;2024-01-27T03:37:33;28.35;;;8.85;;
36839;SDS011;24406;51.640;9.566;2024-01-27T03:42:36;19.90;;;10.25;;
36839;SDS011;24406;51.640;9.566;2024-01-27T03:47:37;33.72;;;10.45;;
36839;SDS011;24406;51.640;9.566;2024-01-27T03:52:39;21.33;;;9.75;;
36839;SDS011;24406;51.640;9.566;2024-01-27T03:57:42;28.65;;;11.45;;
36839;SDS011;24406;51.640;9.566;2024-01-27T04:02:43;27.98;;;10.20;;
36839;SDS011;24406;51.640;9.566;2024-01-27T04:07:45;30.15;;;10.45;;
36839;SDS011;24406;51.640;9.566;2024-01-27T04:12:48;24.35;;;11.25;;
36839;SDS011;24406;51.640;9.566;2024-01-27T04:17:49;26.75;;;12.10;;
36839;SDS011;24406;51.640;9.566;2024-01-27T04:22:51;23.08;;;11.50;;
36839;SDS011;24406;51.640;9.566;2024-01-27T04:27:54;21.80;;;11.63;;
36839;SDS011;24406;51.640;9.566;2024-01-27T04:32:56;25.90;;;12.15;;
36839;SDS011;24406;51.640;9.566;2024-01-27T04:37:57;23.55;;;12.88;;
36839;SDS011;24406;51.640;9.566;2024-01-27T04:43:00;35.42;;;14.50;;
36839;SDS011;24406;51.640;9.566;2024-01-27T04:48:03;35.47;;;13.75;;
36839;SDS011;24406;51.640;9.566;2024-01-27T04:53:05;26.55;;;13.23;;
36839;SDS011;24406;51.640;9.566;2024-01-27T04:58:08;26.00;;;13.48;;
36839;SDS011;24406;51.640;9.566;2024-01-27T05:03:10;25.70;;;14.13;;
36839;SDS011;24406;51.640;9.566;2024-01-27T05:08:14;25.95;;;15.82;;
36839;SDS011;24406;51.640;9.566;2024-01-27T05:13:16;26.98;;;14.35;;
36839;SDS011;24406;51.640;9.566;2024-01-27T05:18:18;24.30;;;14.85;;
36839;SDS011;24406;51.640;9.566;2024-01-27T05:23:20;23.75;;;14.18;;
36839;SDS011;24406;51.640;9.566;2024-01-27T05:28:23;24.48;;;14.52;;
36839;SDS011;24406;51.640;9.566;2024-01-27T05:33:24;22.70;;;13.90;;
36839;SDS011;24406;51.640;9.566;2024-01-27T05:38:26;28.08;;;14.90;;
36839;SDS011;24406;51.640;9.566;2024-01-27T05:43:31;24.60;;;15.18;;
36839;SDS011;24406;51.640;9.566;2024-01-27T05:48:33;25.50;;;15.27;;
36839;SDS011;24406;51.640;9.566;2024-01-27T05:53:34;27.63;;;14.98;;
36839;SDS011;24406;51.640;9.566;2024-01-27T05:58:37;29.00;;;16.33;;
36839;SDS011;24406;51.640;9.566;2024-01-27T06:03:40;32.25;;;17.23;;
36839;SDS011;24406;51.640;9.566;2024-01-27T06:08:42;27.42;;;14.43;;
36839;SDS011;24406;51.640;9.566;2024-01-27T06:13:45;24.35;;;14.98;;
36839;SDS011;24406;51.640;9.566;2024-01-27T06:18:48;26.88;;;14.52;;
36839;SDS011;24406;51.640;9.566;2024-01-27T06:23:50;26.05;;;15.75;;
36839;SDS011;24406;51.640;9.566;2024-01-27T06:28:53;21.42;;;14.93;;
36839;SDS011;24406;51.640;9.566;2024-01-27T06:33:55;23.23;;;14.50;;
36839;SDS011;24406;51.640;9.566;2024-01-27T06:38:56;28.50;;;15.65;;
36839;SDS011;24406;51.640;9.566;2024-01-27T06:43:59;28.98;;;15.68;;
36839;SDS011;24406;51.640;9.566;2024-01-27T06:49:01;27.52;;;15.60;;
36839;SDS011;24406;51.640;9.566;2024-01-27T06:54:03;26.83;;;17.48;;
36839;SDS011;24406;51.640;9.566;2024-01-27T06:59:06;23.63;;;14.68;;
36839;SDS011;24406;51.640;9.566;2024-01-27T07:04:07;27.02;;;17.85;;
36839;SDS011;24406;51.640;9.566;2024-01-27T07:09:09;26.38;;;15.57;;
36839;SDS011;24406;51.640;9.566;2024-01-27T07:14:12;27.33;;;16.95;;
36839;SDS011;24406;51.640;9.566;2024-01-27T07:19:14;41.78;;;18.10;;
36839;SDS011;24406;51.640;9.566;2024-01-27T07:24:16;29.67;;;17.23;;
36839;SDS011;24406;51.640;9.566;2024-01-27T07:29:20;25.75;;;15.13;;
36839;SDS011;24406;51.640;9.566;2024-01-27T07:34:22;33.00;;;15.75;;
36839;SDS011;24406;51.640;9.566;2024-01-27T07:39:24;25.17;;;15.02;;
36839;SDS011;24406;51.640;9.566;2024-01-27T07:44:27;33.78;;;19.17;;
36839;SDS011;24406;51.640;9.566;2024-01-27T07:49:29;29.95;;;15.50;;
36839;SDS011;24406;51.640;9.566;2024-01-27T07:54:30;38.42;;;18.90;;
36839;SDS011;24406;51.640;9.566;2024-01-27T07:59:34;28.15;;;15.88;;
36839;SDS011;24406;51.640;9.566;2024-01-27T08:04:37;23.33;;;14.20;;
36839;SDS011;24406;51.640;9.566;2024-01-27T08:09:38;22.83;;;12.38;;
36839;SDS011;24406;51.640;9.566;2024-01-27T08:14:42;19.38;;;11.95;;
36839;SDS011;24406;51.640;9.566;2024-01-27T08:19:44;29.25;;;16.60;;
36839;SDS011;24406;51.640;9.566;2024-01-27T08:24:45;45.42;;;27.35;;
36839;SDS011;24406;51.640;9.566;2024-01-27T08:29:48;43.03;;;24.45;;
36839;SDS011;24406;51.640;9.566;2024-01-27T08:34:50;42.28;;;26.00;;
36839;SDS011;24406;51.640;9.566;2024-01-27T08:39:51;77.28;;;42.03;;
36839;SDS011;24406;51.640;9.566;2024-01-27T08:44:54;45.95;;;24.08;;
36839;SDS011;24406;51.640;9.566;2024-01-27T08:49:56;27.00;;;14.13;;
36839;SDS011;24406;51.640;9.566;2024-01-27T08:54:58;18.52;;;10.05;;
36839;SDS011;24406;51.640;9.566;2024-01-27T09:00:01;14.50;;;6.78;;
36839;SDS011;24406;51.640;9.566;2024-01-27T09:05:03;21.73;;;9.13;;
36839;SDS011;24406;51.640;9.566;2024-01-27T09:10:07;17.15;;;7.03;;
36839;SDS011;24406;51.640;9.566;2024-01-27T09:15:11;31.33;;;12.45;;
36839;SDS011;24406;51.640;9.566;2024-01-27T09:20:13;32.33;;;14.00;;
36839;SDS011;24406;51.640;9.566;2024-01-27T09:25:15;18.60;;;7.03;;
36839;SDS011;24406;51.640;9.566;2024-01-27T09:30:18;17.67;;;6.03;;
36839;SDS011;24406;51.640;9.566;2024-01-27T09:35:21;16.83;;;6.57;;
36839;SDS011;24406;51.640;9.566;2024-01-27T09:40:22;30.05;;;13.15;;
36839;SDS011;24406;51.640;9.566;2024-01-27T09:45:25;28.15;;;12.07;;
36839;SDS011;24406;51.640;9.566;2024-01-27T09:50:27;15.48;;;5.75;;
36839;SDS011;24406;51.640;9.566;2024-01-27T09:55:29;25.58;;;10.65;;
36839;SDS011;24406;51.640;9.566;2024-01-27T10:00:32;30.70;;;12.75;;
36839;SDS011;24406;51.640;9.566;2024-01-27T10:05:34;14.13;;;6.53;;
36839;SDS011;24406;51.640;9.566;2024-01-27T10:10:37;20.50;;;6.40;;
36839;SDS011;24406;51.640;9.566;2024-01-27T10:15:40;21.15;;;7.85;;
36839;SDS011;24406;51.640;9.566;2024-01-27T10:20:42;12.88;;;5.47;;
36839;SDS011;24406;51.640;9.566;2024-01-27T10:25:44;12.73;;;5.30;;
36839;SDS011;24406;51.640;9.566;2024-01-27T10:30:48;16.33;;;5.95;;
36839;SDS011;24406;51.640;9.566;2024-01-27T10:35:57;16.95;;;6.22;;
36839;SDS011;24406;51.640;9.566;2024-01-27T10:40:59;13.32;;;5.40;;
36839;SDS011;24406;51.640;9.566;2024-01-27T10:46:03;17.80;;;4.88;;
36839;SDS011;24406;51.640;9.566;2024-01-27T10:51:07;10.93;;;4.28;;
36839;SDS011;24406;51.640;9.566;2024-01-27T10:56:10;11.95;;;4.43;;
36839;SDS011;24406;51.640;9.566;2024-01-27T11:01:23;16.20;;;4.57;;
36839;SDS011;24406;51.640;9.566;2024-01-27T11:06:25;14.55;;;5.32;;
36839;SDS011;24406;51.640;9.566;2024-01-27T11:11:28;11.48;;;4.78;;
36839;SDS011;24406;51.640;9.566;2024-01-27T11:16:31;16.10;;;4.55;;
36839;SDS011;24406;51.640;9.566;2024-01-27T11:21:32;14.48;;;3.97;;
36839;SDS011;24406;51.640;9.566;2024-01-27T11:26:34;22.98;;;4.72;;
36839;SDS011;24406;51.640;9.566;2024-01-27T11:31:39;12.43;;;5.70;;
36839;SDS011;24406;51.640;9.566;2024-01-27T11:36:41;12.15;;;4.05;;
36839;SDS011;24406;51.640;9.566;2024-01-27T11:41:43;20.88;;;4.95;;
36839;SDS011;24406;51.640;9.566;2024-01-27T11:46:46;12.02;;;3.38;;
36839;SDS011;24406;51.640;9.566;2024-01-27T11:51:48;17.63;;;4.82;;
36839;SDS011;24406;51.640;9.566;2024-01-27T11:56:50;17.40;;;4.90;;
36839;SDS011;24406;51.640;9.566;2024-01-27T12:01:53;14.23;;;4.30;;
36839;SDS011;24406;51.640;9.566;2024-01-27T12:06:54;18.02;;;4.15;;
36839;SDS011;24406;51.640;9.566;2024-01-27T12:11:56;15.75;;;4.88;;
36839;SDS011;24406;51.640;9.566;2024-01-27T12:16:59;14.13;;;4.00;;
36839;SDS011;24406;51.640;9.566;2024-01-27T12:22:00;14.30;;;4.72;;
36839;SDS011;24406;51.640;9.566;2024-01-27T12:27:02;15.98;;;4.55;;
36839;SDS011;24406;51.640;9.566;2024-01-27T12:32:05;11.10;;;4.50;;
36839;SDS011;24406;51.640;9.566;2024-01-27T12:37:07;14.60;;;4.22;;
36839;SDS011;24406;51.640;9.566;2024-01-27T12:42:09;13.32;;;3.97;;
36839;SDS011;24406;51.640;9.566;2024-01-27T12:47:12;12.85;;;4.78;;
36839;SDS011;24406;51.640;9.566;2024-01-27T12:52:14;12.85;;;3.65;;
36839;SDS011;24406;51.640;9.566;2024-01-27T12:57:15;10.90;;;3.67;;
36839;SDS011;24406;51.640;9.566;2024-01-27T13:02:19;13.15;;;4.38;;
36839;SDS011;24406;51.640;9.566;2024-01-27T13:07:21;9.63;;;3.65;;
36839;SDS011;24406;51.640;9.566;2024-01-27T13:12:28;10.07;;;4.03;;
36839;SDS011;24406;51.640;9.566;2024-01-27T13:17:31;9.48;;;3.60;;
36839;SDS011;24406;51.640;9.566;2024-01-27T13:22:32;11.70;;;3.60;;
36839;SDS011;24406;51.640;9.566;2024-01-27T13:27:36;18.15;;;4.65;;
36839;SDS011;24406;51.640;9.566;2024-01-27T13:32:39;9.80;;;3.22;;
36839;SDS011;24406;51.640;9.566;2024-01-27T13:37:40;14.00;;;4.22;;
36839;SDS011;24406;51.640;9.566;2024-01-27T13:42:42;10.30;;;3.30;;
36839;SDS011;24406;51.640;9.566;2024-01-27T13:47:45;10.02;;;3.35;;
36839;SDS011;24406;51.640;9.566;2024-01-27T13:52:47;9.63;;;3.53;;
36839;SDS011;24406;51.640;9.566;2024-01-27T13:57:48;11.63;;;3.72;;
36839;SDS011;24406;51.640;9.566;2024-01-27T14:02:51;12.15;;;4.50;;
36839;SDS011;24406;51.640;9.566;2024-01-27T14:07:53;16.05;;;4.35;;
36839;SDS011;24406;51.640;9.566;2024-01-27T14:12:54;10.82;;;3.53;;
36839;SDS011;24406;51.640;9.566;2024-01-27T14:17:57;10.70;;;3.17;;
36839;SDS011;24406;51.640;9.566;2024-01-27T14:22:59;10.45;;;3.40;;
36839;SDS011;24406;51.640;9.566;2024-01-27T14:28:01;9.93;;;3.08;;
36839;SDS011;24406;51.640;9.566;2024-01-27T14:33:04;10.50;;;3.58;;
36839;SDS011;24406;51.640;9.566;2024-01-27T14:38:05;9.48;;;3.20;;
36839;SDS011;24406;51.640;9.566;2024-01-27T14:43:08;11.80;;;3.47;;
36839;SDS011;24406;51.640;9.566;2024-01-27T14:48:13;9.13;;;3.58;;
36839;SDS011;24406;51.640;9.566;2024-01-27T14:53:14;11.02;;;3.53;;
36839;SDS011;24406;51.640;9.566;2024-01-27T14:58:16;13.05;;;3.22;;
36839;SDS011;24406;51.640;9.566;2024-01-27T15:03:19;13.43;;;3.95;;
36839;SDS011;24406;51.640;9.566;2024-01-27T15:08:21;11.05;;;4.43;;
36839;SDS011;24406;51.640;9.566;2024-01-27T15:13:23;9.15;;;3.97;;
36839;SDS011;24406;51.640;9.566;2024-01-27T15:18:26;9.57;;;3.70;;
36839;SDS011;24406;51.640;9.566;2024-01-27T15:23:28;8.48;;;3.10;;
36839;SDS011;24406;51.640;9.566;2024-01-27T15:28:30;9.95;;;4.25;;
36839;SDS011;24406;51.640;9.566;2024-01-27T15:33:33;12.25;;;4.70;;
36839;SDS011;24406;51.640;9.566;2024-01-27T15:38:35;10.77;;;6.43;;
36839;SDS011;24406;51.640;9.566;2024-01-27T15:43:36;13.20;;;4.50;;
36839;SDS011;24406;51.640;9.566;2024-01-27T15:48:39;13.45;;;5.00;;
36839;SDS011;24406;51.640;9.566;2024-01-27T15:53:41;14.20;;;4.93;;
36839;SDS011;24406;51.640;9.566;2024-01-27T15:58:42;13.35;;;5.05;;
36839;SDS011;24406;51.640;9.566;2024-01-27T16:03:45;11.90;;;3.20;;
36839;SDS011;24406;51.640;9.566;2024-01-27T16:08:47;11.77;;;2.67;;
36839;SDS011;24406;51.640;9.566;2024-01-27T16:13:48;9.75;;;5.47;;
36839;SDS011;24406;51.640;9.566;2024-01-27T16:18:51;12.98;;;6.57;;
36839;SDS011;24406;51.640;9.566;2024-01-27T16:23:52;15.90;;;8.88;;
36839;SDS011;24406;51.640;9.566;2024-01-27T16:28:54;14.68;;;7.45;;
36839;SDS011;24406;51.640;9.566;2024-01-27T16:33:57;9.05;;;3.63;;
36839;SDS011;24406;51.640;9.566;2024-01-27T16:38:59;10.70;;;3.13;;
36839;SDS011;24406;51.640;9.566;2024-01-27T16:44:00;9.35;;;4.90;;
36839;SDS011;24406;51.640;9.566;2024-01-27T16:49:03;11.35;;;3.45;;
36839;SDS011;24406;51.640;9.566;2024-01-27T16:54:05;13.48;;;4.32;;
36839;SDS011;24406;51.640;9.566;2024-01-27T16:59:06;14.07;;;4.53;;
36839;SDS011;24406;51.640;9.566;2024-01-27T17:04:09;9.32;;;5.03;;
36839;SDS011;24406;51.640;9.566;2024-01-27T17:09:14;22.23;;;11.82;;
36839;SDS011;24406;51.640;9.566;2024-01-27T17:14:16;17.30;;;10.73;;
36839;SDS011;24406;51.640;9.566;2024-01-27T17:19:19;17.13;;;10.30;;
36839;SDS011;24406;51.640;9.566;2024-01-27T17:24:21;14.10;;;9.80;;
36839;SDS011;24406;51.640;9.566;2024-01-27T17:29:22;14.63;;;8.77;;
36839;SDS011;24406;51.640;9.566;2024-01-27T17:34:25;10.70;;;5.65;;
36839;SDS011;24406;51.640;9.566;2024-01-27T17:39:27;9.50;;;4.22;;
36839;SDS011;24406;51.640;9.566;2024-01-27T17:44:29;18.92;;;10.48;;
36839;SDS011;24406;51.640;9.566;2024-01-27T17:49:33;6.40;;;2.78;;
36839;SDS011;24406;51.640;9.566;2024-01-27T17:54:35;11.70;;;3.08;;
36839;SDS011;24406;51.640;9.566;2024-01-27T17:59:37;10.60;;;2.97;;
36839;SDS011;24406;51.640;9.566;2024-01-27T18:04:40;10.77;;;3.47;;
36839;SDS011;24406;51.640;9.566;2024-01-27T18:09:42;15.10;;;4.78;;
36839;SDS011;24406;51.640;9.566;2024-01-27T18:14:44;10.05;;;3.53;;
36839;SDS011;24406;51.640;9.566;2024-01-27T18:19:46;22.98;;;11.68;;
36839;SDS011;24406;51.640;9.566;2024-01-27T18:24:48;11.23;;;6.18;;
36839;SDS011;24406;51.640;9.566;2024-01-27T18:29:51;7.82;;;4.20;;
36839;SDS011;24406;51.640;9.566;2024-01-27T18:34:54;7.72;;;3.20;;
36839;SDS011;24406;51.640;9.566;2024-01-27T18:39:55;10.23;;;3.40;;
36839;SDS011;24406;51.640;9.566;2024-01-27T18:45:00;10.57;;;3.25;;
36839;SDS011;24406;51.640;9.566;2024-01-27T18:50:05;6.57;;;4.00;;
36839;SDS011;24406;51.640;9.566;2024-01-27T18:55:07;43.05;;;19.25;;
36839;SDS011;24406;51.640;9.566;2024-01-27T19:00:09;47.13;;;23.45;;
36839;SDS011;24406;51.640;9.566;2024-01-27T19:05:12;29.75;;;13.85;;
36839;SDS011;24406;51.640;9.566;2024-01-27T19:10:15;13.48;;;8.95;;
36839;SDS011;24406;51.640;9.566;2024-01-27T19:15:17;14.18;;;6.10;;
36839;SDS011;24406;51.640;9.566;2024-01-27T19:20:20;10.15;;;5.18;;
36839;SDS011;24406;51.640;9.566;2024-01-27T19:25:21;9.65;;;3.00;;
36839;SDS011;24406;51.640;9.566;2024-01-27T19:30:23;12.05;;;3.05;;
36839;SDS011;24406;51.640;9.566;2024-01-27T19:35:26;10.70;;;2.45;;
36839;SDS011;24406;51.640;9.566;2024-01-27T19:40:27;4.82;;;2.63;;
36839;SDS011;24406;51.640;9.566;2024-01-27T19:45:31;9.45;;;3.40;;
36839;SDS011;24406;51.640;9.566;2024-01-27T19:50:34;8.00;;;3.53;;
36839;SDS011;24406;51.640;9.566;2024-01-27T19:55:35;14.32;;;4.45;;
36839;SDS011;24406;51.640;9.566;2024-01-27T20:00:37;13.32;;;5.47;;
36839;SDS011;24406;51.640;9.566;2024-01-27T20:05:39;13.90;;;6.07;;
36839;SDS011;24406;51.640;9.566;2024-01-27T20:10:41;14.25;;;6.72;;
36839;SDS011;24406;51.640;9.566;2024-01-27T20:15:43;17.42;;;9.40;;
36839;SDS011;24406;51.640;9.566;2024-01-27T20:20:46;18.73;;;9.52;;
36839;SDS011;24406;51.640;9.566;2024-01-27T20:25:47;20.25;;;11.27;;
36839;SDS011;24406;51.640;9.566;2024-01-27T20:30:51;18.73;;;8.10;;
36839;SDS011;24406;51.640;9.566;2024-01-27T20:35:54;14.02;;;7.57;;
36839;SDS011;24406;51.640;9.566;2024-01-27T20:40:55;14.40;;;7.13;;
36839;SDS011;24406;51.640;9.566;2024-01-27T20:45:57;21.35;;;8.25;;
36839;SDS011;24406;51.640;9.566;2024-01-27T20:51:03;14.25;;;8.63;;
36839;SDS011;24406;51.640;9.566;2024-01-27T20:56:05;13.73;;;7.85;;
36839;SDS011;24406;51.640;9.566;2024-01-27T21:01:07;14.55;;;6.82;;
36839;SDS011;24406;51.640;9.566;2024-01-27T21:06:09;11.82;;;6.32;;
36839;SDS011;24406;51.640;9.566;2024-01-27T21:11:11;19.58;;;7.95;;
36839;SDS011;24406;51.640;9.566;2024-01-27T21:16:13;22.48;;;9.77;;
36839;SDS011;24406;51.640;9.566;2024-01-27T21:21:16;20.42;;;9.13;;
36839;SDS011;24406;51.640;9.566;2024-01-27T21:26:17;17.02;;;8.10;;
36839;SDS011;24406;51.640;9.566;2024-01-27T21:31:19;17.73;;;7.68;;
36839;SDS011;24406;51.640;9.566;2024-01-27T21:36:22;15.35;;;7.65;;
36839;SDS011;24406;51.640;9.566;2024-01-27T21:41:24;18.30;;;9.65;;
36839;SDS011;24406;51.640;9.566;2024-01-27T21:46:25;24.50;;;12.52;;
36839;SDS011;24406;51.640;9.566;2024-01-27T21:51:28;18.23;;;10.20;;
36839;SDS011;24406;51.640;9.566;2024-01-27T21:56:30;21.50;;;9.98;;
36839;SDS011;24406;51.640;9.566;2024-01-27T22:01:33;17.98;;;10.05;;
36839;SDS011;24406;51.640;9.566;2024-01-27T22:06:35;15.52;;;9.38;;
36839;SDS011;24406;51.640;9.566;2024-01-27T22:11:37;15.25;;;8.77;;
36839;SDS011;24406;51.640;9.566;2024-01-27T22:16:39;20.30;;;9.88;;
36839;SDS011;24406;51.640;9.566;2024-01-27T22:21:41;18.63;;;9.57;;
36839;SDS011;24406;51.640;9.566;2024-01-27T22:26:43;22.55;;;10.00;;
36839;SDS011;24406;51.640;9.566;2024-01-27T22:31:45;15.02;;;7.88;;
36839;SDS011;24406;51.640;9.566;2024-01-27T22:36:48;15.75;;;8.60;;
36839;SDS011;24406;51.640;9.566;2024-01-27T22:41:50;19.67;;;8.98;;
36839;SDS011;24406;51.640;9.566;2024-01-27T22:46:53;15.20;;;8.27;;
36839;SDS011;24406;51.640;9.566;2024-01-27T22:51:56;20.17;;;8.13;;
36839;SDS011;24406;51.640;9.566;2024-01-27T22:56:57;15.45;;;7.82;;
36839;SDS011;24406;51.640;9.566;2024-01-27T23:01:59;14.90;;;7.55;;
36839;SDS011;24406;51.640;9.566;2024-01-27T23:07:01;22.85;;;9.10;;
36839;SDS011;24406;51.640;9.566;2024-01-27T23:12:03;15.95;;;9.68;;
36839;SDS011;24406;51.640;9.566;2024-01-27T23:17:05;12.43;;;8.82;;
36839;SDS011;24406;51.640;9.566;2024-01-27T23:22:18;26.95;;;13.63;;
36839;SDS011;24406;51.640;9.566;2024-01-27T23:27:29;19.65;;;11.45;;
36839;SDS011;24406;51.640;9.566;2024-01-27T23:32:34;19.73;;;11.32;;
36839;SDS011;24406;51.640;9.566;2024-01-27T23:37:45;22.08;;;12.63;;
36839;SDS011;24406;51.640;9.566;2024-01-27T23:42:47;16.52;;;10.80;;
36839;SDS011;24406;51.640;9.566;2024-01-27T23:47:49;21.25;;;9.55;;
36839;SDS011;24406;51.640;9.566;2024-01-27T23:52:56;12.40;;;8.88;;
36839;SDS011;24406;51.640;9.566;2024-01-27T23:58:01;19.85;;;9.77;;
